sensor_id;sensor_type;location;lat;lon;timestamp;P1;durP1;ratioP1;P2;durP2;ratioP2
1693;SDS011;844;47.058;15.472;2022-12-07T00:00:20;12.53;;;11.17;;
1693;SDS011;844;47.058;15.472;2022-12-07T00:02:50;14.37;;;12.90;;
1693;SDS011;844;47.058;15.472;2022-12-07T00:05:21;12.50;;;10.57;;
1693;SDS011;844;47.058;15.472;2022-12-07T00:07:51;16.53;;;13.27;;
1693;SDS011;844;47.058;15.472;2022-12-07T00:10:21;14.37;;;11.57;;
1693;SDS011;844;47.058;15.472;2022-12-07T00:12:51;13.87;;;12.43;;
1693;SDS011;844;47.058;15.472;2022-12-07T00:15:21;14.83;;;12.37;;
1693;SDS011;844;47.058;15.472;2022-12-07T00:17:51;13.67;;;10.90;;
1693;SDS011;844;47.058;15.472;2022-12-07T00:20:23;14.20;;;12.70;;
1693;SDS011;844;47.058;15.472;2022-12-07T00:22:53;13.77;;;12.47;;
1693;SDS011;844;47.058;15.472;2022-12-07T00:25:23;15.83;;;12.57;;
1693;SDS011;844;47.058;15.472;2022-12-07T00:27:52;15.63;;;13.93;;
1693;SDS011;844;47.058;15.472;2022-12-07T00:30:23;16.70;;;13.63;;
1693;SDS011;844;47.058;15.472;2022-12-07T00:32:53;14.30;;;12.20;;
1693;SDS011;844;47.058;15.472;2022-12-07T00:35:24;13.50;;;11.13;;
1693;SDS011;844;47.058;15.472;2022-12-07T00:37:54;14.43;;;12.93;;
1693;SDS011;844;47.058;15.472;2022-12-07T00:40:23;15.70;;;13.50;;
1693;SDS011;844;47.058;15.472;2022-12-07T00:42:53;16.50;;;13.00;;
1693;SDS011;844;47.058;15.472;2022-12-07T00:45:23;14.80;;;12.20;;
1693;SDS011;844;47.058;15.472;2022-12-07T00:47:53;15.03;;;13.37;;
1693;SDS011;844;47.058;15.472;2022-12-07T00:50:25;16.40;;;12.03;;
1693;SDS011;844;47.058;15.472;2022-12-07T00:52:55;16.73;;;14.87;;
1693;SDS011;844;47.058;15.472;2022-12-07T00:55:24;16.73;;;13.07;;
1693;SDS011;844;47.058;15.472;2022-12-07T00:57:54;13.73;;;12.17;;
1693;SDS011;844;47.058;15.472;2022-12-07T01:00:23;17.43;;;12.60;;
1693;SDS011;844;47.058;15.472;2022-12-07T01:02:53;14.43;;;12.90;;
1693;SDS011;844;47.058;15.472;2022-12-07T01:05:25;13.50;;;11.70;;
1693;SDS011;844;47.058;15.472;2022-12-07T01:07:55;16.67;;;13.70;;
1693;SDS011;844;47.058;15.472;2022-12-07T01:10:24;14.90;;;12.40;;
1693;SDS011;844;47.058;15.472;2022-12-07T01:12:53;16.53;;;14.83;;
1693;SDS011;844;47.058;15.472;2022-12-07T01:15:23;18.57;;;14.63;;
1693;SDS011;844;47.058;15.472;2022-12-07T01:17:53;17.83;;;12.80;;
1693;SDS011;844;47.058;15.472;2022-12-07T01:20:24;14.63;;;12.30;;
1693;SDS011;844;47.058;15.472;2022-12-07T01:22:54;15.83;;;13.63;;
1693;SDS011;844;47.058;15.472;2022-12-07T01:25:24;14.77;;;12.60;;
1693;SDS011;844;47.058;15.472;2022-12-07T01:27:54;15.53;;;13.07;;
1693;SDS011;844;47.058;15.472;2022-12-07T01:30:24;15.13;;;13.27;;
1693;SDS011;844;47.058;15.472;2022-12-07T01:32:54;19.20;;;15.50;;
1693;SDS011;844;47.058;15.472;2022-12-07T01:35:26;14.87;;;12.40;;
1693;SDS011;844;47.058;15.472;2022-12-07T01:37:56;15.03;;;12.80;;
1693;SDS011;844;47.058;15.472;2022-12-07T01:40:25;15.10;;;13.07;;
1693;SDS011;844;47.058;15.472;2022-12-07T01:42:55;16.90;;;14.30;;
1693;SDS011;844;47.058;15.472;2022-12-07T01:48:14;17.70;;;15.73;;
1693;SDS011;844;47.058;15.472;2022-12-07T01:50:48;15.73;;;14.13;;
1693;SDS011;844;47.058;15.472;2022-12-07T01:53:19;17.07;;;12.57;;
1693;SDS011;844;47.058;15.472;2022-12-07T01:55:49;13.83;;;12.20;;
1693;SDS011;844;47.058;15.472;2022-12-07T01:58:20;16.57;;;13.47;;
1693;SDS011;844;47.058;15.472;2022-12-07T02:00:51;15.73;;;12.03;;
1693;SDS011;844;47.058;15.472;2022-12-07T02:03:21;16.00;;;13.33;;
1693;SDS011;844;47.058;15.472;2022-12-07T02:05:54;17.37;;;13.50;;
1693;SDS011;844;47.058;15.472;2022-12-07T02:08:26;17.73;;;13.27;;
1693;SDS011;844;47.058;15.472;2022-12-07T02:10:56;19.27;;;14.93;;
1693;SDS011;844;47.058;15.472;2022-12-07T02:13:26;17.40;;;14.30;;
1693;SDS011;844;47.058;15.472;2022-12-07T02:16:01;18.23;;;15.23;;
1693;SDS011;844;47.058;15.472;2022-12-07T02:18:43;15.77;;;12.70;;
1693;SDS011;844;47.058;15.472;2022-12-07T02:21:20;16.10;;;12.73;;
1693;SDS011;844;47.058;15.472;2022-12-07T02:24:02;15.30;;;12.77;;
1693;SDS011;844;47.058;15.472;2022-12-07T02:30:00;15.70;;;12.93;;
1693;SDS011;844;47.058;15.472;2022-12-07T02:32:35;17.33;;;13.70;;
1693;SDS011;844;47.058;15.472;2022-12-07T02:35:12;14.03;;;12.30;;
1693;SDS011;844;47.058;15.472;2022-12-07T02:37:53;16.80;;;13.43;;
1693;SDS011;844;47.058;15.472;2022-12-07T02:40:29;13.60;;;11.13;;
1693;SDS011;844;47.058;15.472;2022-12-07T02:43:04;14.17;;;11.77;;
1693;SDS011;844;47.058;15.472;2022-12-07T02:45:38;16.60;;;12.60;;
1693;SDS011;844;47.058;15.472;2022-12-07T02:48:08;13.33;;;11.30;;
1693;SDS011;844;47.058;15.472;2022-12-07T02:50:44;14.13;;;12.03;;
1693;SDS011;844;47.058;15.472;2022-12-07T02:53:28;14.70;;;11.27;;
1693;SDS011;844;47.058;15.472;2022-12-07T02:55:59;12.10;;;10.00;;
1693;SDS011;844;47.058;15.472;2022-12-07T02:58:37;19.23;;;12.20;;
1693;SDS011;844;47.058;15.472;2022-12-07T03:01:19;14.73;;;11.10;;
1693;SDS011;844;47.058;15.472;2022-12-07T03:03:57;16.53;;;11.47;;
1693;SDS011;844;47.058;15.472;2022-12-07T03:06:33;13.43;;;10.53;;
1693;SDS011;844;47.058;15.472;2022-12-07T03:09:09;13.80;;;12.33;;
1693;SDS011;844;47.058;15.472;2022-12-07T03:11:44;13.23;;;11.20;;
1693;SDS011;844;47.058;15.472;2022-12-07T03:14:17;14.37;;;11.57;;
1693;SDS011;844;47.058;15.472;2022-12-07T03:16:52;12.43;;;10.60;;
1693;SDS011;844;47.058;15.472;2022-12-07T03:19:24;15.93;;;11.30;;
1693;SDS011;844;47.058;15.472;2022-12-07T03:21:57;13.43;;;10.80;;
1693;SDS011;844;47.058;15.472;2022-12-07T03:24:30;14.33;;;10.93;;
1693;SDS011;844;47.058;15.472;2022-12-07T03:27:03;10.97;;;9.00;;
1693;SDS011;844;47.058;15.472;2022-12-07T03:29:36;10.00;;;9.00;;
1693;SDS011;844;47.058;15.472;2022-12-07T03:32:11;12.53;;;10.13;;
1693;SDS011;844;47.058;15.472;2022-12-07T03:34:46;10.57;;;9.43;;
1693;SDS011;844;47.058;15.472;2022-12-07T03:37:18;13.47;;;10.50;;
1693;SDS011;844;47.058;15.472;2022-12-07T03:39:57;9.60;;;8.17;;
1693;SDS011;844;47.058;15.472;2022-12-07T03:42:31;10.33;;;9.10;;
1693;SDS011;844;47.058;15.472;2022-12-07T03:45:03;9.50;;;8.50;;
1693;SDS011;844;47.058;15.472;2022-12-07T03:47:38;9.43;;;7.67;;
1693;SDS011;844;47.058;15.472;2022-12-07T03:50:15;11.07;;;7.17;;
1693;SDS011;844;47.058;15.472;2022-12-07T03:52:52;10.73;;;8.23;;
1693;SDS011;844;47.058;15.472;2022-12-07T03:55:25;9.97;;;8.97;;
1693;SDS011;844;47.058;15.472;2022-12-07T03:57:58;12.53;;;8.93;;
1693;SDS011;844;47.058;15.472;2022-12-07T04:00:30;8.60;;;7.23;;
1693;SDS011;844;47.058;15.472;2022-12-07T04:03:01;10.17;;;8.30;;
1693;SDS011;844;47.058;15.472;2022-12-07T04:05:31;8.23;;;7.50;;
1693;SDS011;844;47.058;15.472;2022-12-07T04:08:00;10.23;;;9.10;;
1693;SDS011;844;47.058;15.472;2022-12-07T04:10:30;11.70;;;7.73;;
1693;SDS011;844;47.058;15.472;2022-12-07T04:13:00;11.27;;;9.87;;
1693;SDS011;844;47.058;15.472;2022-12-07T04:15:30;9.33;;;8.23;;
1693;SDS011;844;47.058;15.472;2022-12-07T04:18:02;9.07;;;7.50;;
1693;SDS011;844;47.058;15.472;2022-12-07T04:20:33;9.80;;;8.40;;
1693;SDS011;844;47.058;15.472;2022-12-07T04:23:02;9.73;;;7.77;;
1693;SDS011;844;47.058;15.472;2022-12-07T04:25:32;10.10;;;9.03;;
1693;SDS011;844;47.058;15.472;2022-12-07T04:28:01;7.73;;;7.03;;
1693;SDS011;844;47.058;15.472;2022-12-07T04:30:31;10.40;;;8.03;;
1693;SDS011;844;47.058;15.472;2022-12-07T04:33:02;8.63;;;7.80;;
1693;SDS011;844;47.058;15.472;2022-12-07T04:35:31;8.83;;;7.93;;
1693;SDS011;844;47.058;15.472;2022-12-07T04:38:01;8.60;;;7.50;;
1693;SDS011;844;47.058;15.472;2022-12-07T04:40:31;8.80;;;7.73;;
1693;SDS011;844;47.058;15.472;2022-12-07T04:43:01;9.03;;;8.13;;
1693;SDS011;844;47.058;15.472;2022-12-07T04:45:32;9.27;;;8.27;;
1693;SDS011;844;47.058;15.472;2022-12-07T04:48:04;8.77;;;7.93;;
1693;SDS011;844;47.058;15.472;2022-12-07T04:50:35;10.80;;;8.47;;
1693;SDS011;844;47.058;15.472;2022-12-07T04:53:12;10.43;;;8.43;;
1693;SDS011;844;47.058;15.472;2022-12-07T04:55:41;8.47;;;7.67;;
1693;SDS011;844;47.058;15.472;2022-12-07T04:58:13;9.13;;;7.93;;
1693;SDS011;844;47.058;15.472;2022-12-07T05:00:43;9.70;;;8.20;;
1693;SDS011;844;47.058;15.472;2022-12-07T05:03:16;10.73;;;8.30;;
1693;SDS011;844;47.058;15.472;2022-12-07T05:05:47;9.47;;;8.00;;
1693;SDS011;844;47.058;15.472;2022-12-07T05:08:17;11.23;;;9.40;;
1693;SDS011;844;47.058;15.472;2022-12-07T05:10:48;9.53;;;8.53;;
1693;SDS011;844;47.058;15.472;2022-12-07T05:13:17;9.43;;;8.40;;
1693;SDS011;844;47.058;15.472;2022-12-07T05:15:48;10.33;;;9.33;;
1693;SDS011;844;47.058;15.472;2022-12-07T05:18:19;9.33;;;8.40;;
1693;SDS011;844;47.058;15.472;2022-12-07T05:20:51;10.73;;;9.50;;
1693;SDS011;844;47.058;15.472;2022-12-07T05:23:22;9.77;;;8.77;;
1693;SDS011;844;47.058;15.472;2022-12-07T05:25:51;11.10;;;9.33;;
1693;SDS011;844;47.058;15.472;2022-12-07T05:28:21;10.90;;;8.70;;
1693;SDS011;844;47.058;15.472;2022-12-07T05:30:51;11.33;;;8.10;;
1693;SDS011;844;47.058;15.472;2022-12-07T05:33:27;9.07;;;8.10;;
1693;SDS011;844;47.058;15.472;2022-12-07T05:35:57;8.67;;;7.77;;
1693;SDS011;844;47.058;15.472;2022-12-07T05:38:32;9.50;;;8.13;;
1693;SDS011;844;47.058;15.472;2022-12-07T05:41:03;9.07;;;8.17;;
1693;SDS011;844;47.058;15.472;2022-12-07T05:43:33;9.93;;;9.03;;
1693;SDS011;844;47.058;15.472;2022-12-07T05:46:03;10.30;;;8.47;;
1693;SDS011;844;47.058;15.472;2022-12-07T05:48:35;10.03;;;9.00;;
1693;SDS011;844;47.058;15.472;2022-12-07T05:51:05;9.33;;;8.53;;
1693;SDS011;844;47.058;15.472;2022-12-07T05:53:34;11.47;;;9.57;;
1693;SDS011;844;47.058;15.472;2022-12-07T05:56:05;9.83;;;8.53;;
1693;SDS011;844;47.058;15.472;2022-12-07T05:58:35;11.13;;;10.03;;
1693;SDS011;844;47.058;15.472;2022-12-07T06:01:23;10.70;;;8.80;;
1693;SDS011;844;47.058;15.472;2022-12-07T06:03:57;11.93;;;8.93;;
1693;SDS011;844;47.058;15.472;2022-12-07T06:06:28;9.67;;;8.43;;
1693;SDS011;844;47.058;15.472;2022-12-07T06:08:58;9.20;;;8.30;;
1693;SDS011;844;47.058;15.472;2022-12-07T06:11:30;11.30;;;9.20;;
1693;SDS011;844;47.058;15.472;2022-12-07T06:14:17;10.97;;;9.83;;
1693;SDS011;844;47.058;15.472;2022-12-07T06:16:47;9.77;;;8.70;;
1693;SDS011;844;47.058;15.472;2022-12-07T06:19:18;13.00;;;9.90;;
1693;SDS011;844;47.058;15.472;2022-12-07T06:21:49;12.50;;;10.20;;
1693;SDS011;844;47.058;15.472;2022-12-07T06:24:21;11.73;;;10.13;;
1693;SDS011;844;47.058;15.472;2022-12-07T06:26:54;12.83;;;9.50;;
1693;SDS011;844;47.058;15.472;2022-12-07T06:29:26;11.03;;;9.90;;
1693;SDS011;844;47.058;15.472;2022-12-07T06:31:56;10.53;;;9.43;;
1693;SDS011;844;47.058;15.472;2022-12-07T06:34:28;12.30;;;11.03;;
1693;SDS011;844;47.058;15.472;2022-12-07T06:36:58;9.80;;;8.63;;
1693;SDS011;844;47.058;15.472;2022-12-07T06:39:28;11.27;;;10.17;;
1693;SDS011;844;47.058;15.472;2022-12-07T06:41:58;11.90;;;10.60;;
1693;SDS011;844;47.058;15.472;2022-12-07T06:44:28;15.00;;;10.17;;
1693;SDS011;844;47.058;15.472;2022-12-07T06:46:58;13.73;;;10.93;;
1693;SDS011;844;47.058;15.472;2022-12-07T06:49:50;15.00;;;11.03;;
1693;SDS011;844;47.058;15.472;2022-12-07T06:52:20;14.97;;;12.43;;
1693;SDS011;844;47.058;15.472;2022-12-07T06:54:50;14.20;;;12.17;;
1693;SDS011;844;47.058;15.472;2022-12-07T06:57:21;13.87;;;12.40;;
1693;SDS011;844;47.058;15.472;2022-12-07T06:59:51;16.37;;;13.20;;
1693;SDS011;844;47.058;15.472;2022-12-07T07:02:21;12.60;;;11.20;;
1693;SDS011;844;47.058;15.472;2022-12-07T07:04:52;13.73;;;11.73;;
1693;SDS011;844;47.058;15.472;2022-12-07T07:07:23;14.03;;;11.87;;
1693;SDS011;844;47.058;15.472;2022-12-07T07:09:54;15.97;;;12.43;;
1693;SDS011;844;47.058;15.472;2022-12-07T07:12:23;14.43;;;12.00;;
1693;SDS011;844;47.058;15.472;2022-12-07T07:14:55;14.83;;;11.07;;
1693;SDS011;844;47.058;15.472;2022-12-07T07:17:26;13.37;;;10.53;;
1693;SDS011;844;47.058;15.472;2022-12-07T07:19:57;13.00;;;9.70;;
1693;SDS011;844;47.058;15.472;2022-12-07T07:22:28;14.20;;;10.40;;
1693;SDS011;844;47.058;15.472;2022-12-07T07:24:58;16.17;;;11.90;;
1693;SDS011;844;47.058;15.472;2022-12-07T07:27:28;13.63;;;11.60;;
1693;SDS011;844;47.058;15.472;2022-12-07T07:29:58;12.00;;;10.70;;
1693;SDS011;844;47.058;15.472;2022-12-07T07:32:29;15.20;;;12.07;;
1693;SDS011;844;47.058;15.472;2022-12-07T07:35:00;14.23;;;11.87;;
1693;SDS011;844;47.058;15.472;2022-12-07T07:37:30;15.17;;;12.17;;
1693;SDS011;844;47.058;15.472;2022-12-07T07:40:00;13.23;;;11.53;;
1693;SDS011;844;47.058;15.472;2022-12-07T07:42:30;14.37;;;12.93;;
1693;SDS011;844;47.058;15.472;2022-12-07T07:45:00;18.37;;;12.60;;
1693;SDS011;844;47.058;15.472;2022-12-07T07:47:30;16.23;;;11.90;;
1693;SDS011;844;47.058;15.472;2022-12-07T07:50:01;14.57;;;12.10;;
1693;SDS011;844;47.058;15.472;2022-12-07T07:52:32;17.20;;;13.10;;
1693;SDS011;844;47.058;15.472;2022-12-07T07:55:02;18.43;;;13.57;;
1693;SDS011;844;47.058;15.472;2022-12-07T07:57:35;13.30;;;11.83;;
1693;SDS011;844;47.058;15.472;2022-12-07T08:00:06;16.53;;;12.30;;
1693;SDS011;844;47.058;15.472;2022-12-07T08:02:38;16.70;;;11.83;;
1693;SDS011;844;47.058;15.472;2022-12-07T08:05:10;17.70;;;13.90;;
1693;SDS011;844;47.058;15.472;2022-12-07T08:07:40;16.43;;;14.00;;
1693;SDS011;844;47.058;15.472;2022-12-07T08:10:11;16.10;;;14.40;;
1693;SDS011;844;47.058;15.472;2022-12-07T08:12:42;17.73;;;15.40;;
1693;SDS011;844;47.058;15.472;2022-12-07T08:15:27;14.43;;;12.83;;
1693;SDS011;844;47.058;15.472;2022-12-07T08:17:58;19.33;;;13.33;;
1693;SDS011;844;47.058;15.472;2022-12-07T08:20:31;17.43;;;13.10;;
1693;SDS011;844;47.058;15.472;2022-12-07T08:23:02;18.00;;;14.10;;
1693;SDS011;844;47.058;15.472;2022-12-07T08:25:31;16.07;;;12.43;;
1693;SDS011;844;47.058;15.472;2022-12-07T08:28:02;18.87;;;15.47;;
1693;SDS011;844;47.058;15.472;2022-12-07T08:30:32;15.60;;;13.10;;
1693;SDS011;844;47.058;15.472;2022-12-07T08:33:03;16.83;;;14.60;;
1693;SDS011;844;47.058;15.472;2022-12-07T08:35:34;15.00;;;13.30;;
1693;SDS011;844;47.058;15.472;2022-12-07T08:38:04;14.83;;;13.27;;
1693;SDS011;844;47.058;15.472;2022-12-07T08:40:33;15.27;;;13.53;;
1693;SDS011;844;47.058;15.472;2022-12-07T08:43:03;15.30;;;12.60;;
1693;SDS011;844;47.058;15.472;2022-12-07T08:45:33;18.03;;;14.23;;
1693;SDS011;844;47.058;15.472;2022-12-07T08:48:04;18.07;;;14.57;;
1693;SDS011;844;47.058;15.472;2022-12-07T08:50:38;16.60;;;14.90;;
1693;SDS011;844;47.058;15.472;2022-12-07T08:53:15;19.13;;;16.37;;
1693;SDS011;844;47.058;15.472;2022-12-07T08:55:45;18.83;;;15.73;;
1693;SDS011;844;47.058;15.472;2022-12-07T08:58:15;19.47;;;13.63;;
1693;SDS011;844;47.058;15.472;2022-12-07T09:00:46;18.50;;;14.73;;
1693;SDS011;844;47.058;15.472;2022-12-07T09:03:15;16.40;;;14.70;;
1693;SDS011;844;47.058;15.472;2022-12-07T09:05:47;24.03;;;15.50;;
1693;SDS011;844;47.058;15.472;2022-12-07T09:08:16;17.70;;;15.47;;
1693;SDS011;844;47.058;15.472;2022-12-07T09:10:46;20.60;;;14.80;;
1693;SDS011;844;47.058;15.472;2022-12-07T09:13:17;20.83;;;14.77;;
1693;SDS011;844;47.058;15.472;2022-12-07T09:15:47;15.50;;;13.80;;
1693;SDS011;844;47.058;15.472;2022-12-07T09:18:16;18.13;;;16.23;;
1693;SDS011;844;47.058;15.472;2022-12-07T09:20:48;17.80;;;15.33;;
1693;SDS011;844;47.058;15.472;2022-12-07T09:23:18;17.73;;;15.93;;
1693;SDS011;844;47.058;15.472;2022-12-07T09:25:48;17.67;;;14.97;;
1693;SDS011;844;47.058;15.472;2022-12-07T09:28:17;16.03;;;14.37;;
1693;SDS011;844;47.058;15.472;2022-12-07T09:30:47;16.30;;;14.20;;
1693;SDS011;844;47.058;15.472;2022-12-07T09:33:37;17.27;;;14.67;;
1693;SDS011;844;47.058;15.472;2022-12-07T09:36:10;15.50;;;13.90;;
1693;SDS011;844;47.058;15.472;2022-12-07T09:38:41;19.00;;;15.10;;
1693;SDS011;844;47.058;15.472;2022-12-07T09:41:10;17.83;;;14.87;;
1693;SDS011;844;47.058;15.472;2022-12-07T09:43:40;21.57;;;13.67;;
1693;SDS011;844;47.058;15.472;2022-12-07T09:46:11;21.07;;;15.87;;
1693;SDS011;844;47.058;15.472;2022-12-07T09:48:43;18.97;;;15.43;;
1693;SDS011;844;47.058;15.472;2022-12-07T09:51:16;25.57;;;16.30;;
1693;SDS011;844;47.058;15.472;2022-12-07T09:53:51;25.00;;;17.80;;
1693;SDS011;844;47.058;15.472;2022-12-07T09:56:22;22.50;;;16.80;;
1693;SDS011;844;47.058;15.472;2022-12-07T09:58:54;21.93;;;16.67;;
1693;SDS011;844;47.058;15.472;2022-12-07T10:01:29;24.50;;;18.23;;
1693;SDS011;844;47.058;15.472;2022-12-07T10:04:02;21.57;;;16.77;;
1693;SDS011;844;47.058;15.472;2022-12-07T10:06:42;18.80;;;15.57;;
1693;SDS011;844;47.058;15.472;2022-12-07T10:09:13;19.40;;;16.57;;
1693;SDS011;844;47.058;15.472;2022-12-07T10:11:58;19.40;;;16.17;;
1693;SDS011;844;47.058;15.472;2022-12-07T10:14:33;23.80;;;17.60;;
1693;SDS011;844;47.058;15.472;2022-12-07T10:17:29;22.70;;;17.10;;
1693;SDS011;844;47.058;15.472;2022-12-07T10:23:13;25.90;;;18.70;;
1693;SDS011;844;47.058;15.472;2022-12-07T10:25:44;30.97;;;21.20;;
1693;SDS011;844;47.058;15.472;2022-12-07T10:28:17;27.10;;;20.20;;
1693;SDS011;844;47.058;15.472;2022-12-07T10:30:52;27.07;;;18.60;;
1693;SDS011;844;47.058;15.472;2022-12-07T10:33:30;24.30;;;18.27;;
1693;SDS011;844;47.058;15.472;2022-12-07T10:36:15;22.43;;;17.73;;
1693;SDS011;844;47.058;15.472;2022-12-07T10:38:50;25.27;;;18.80;;
1693;SDS011;844;47.058;15.472;2022-12-07T10:41:21;25.37;;;18.60;;
1693;SDS011;844;47.058;15.472;2022-12-07T10:43:52;32.77;;;19.87;;
1693;SDS011;844;47.058;15.472;2022-12-07T10:46:39;25.60;;;19.73;;
1693;SDS011;844;47.058;15.472;2022-12-07T10:52:57;28.40;;;19.07;;
1693;SDS011;844;47.058;15.472;2022-12-07T10:55:59;27.20;;;20.07;;
1693;SDS011;844;47.058;15.472;2022-12-07T10:58:39;22.47;;;18.80;;
1693;SDS011;844;47.058;15.472;2022-12-07T11:01:19;27.00;;;18.20;;
1693;SDS011;844;47.058;15.472;2022-12-07T11:03:55;25.70;;;18.73;;
1693;SDS011;844;47.058;15.472;2022-12-07T11:06:57;26.00;;;19.43;;
1693;SDS011;844;47.058;15.472;2022-12-07T11:15:57;26.23;;;18.80;;
1693;SDS011;844;47.058;15.472;2022-12-07T11:18:39;21.73;;;18.00;;
1693;SDS011;844;47.058;15.472;2022-12-07T11:21:14;23.60;;;19.50;;
1693;SDS011;844;47.058;15.472;2022-12-07T11:23:48;18.87;;;16.60;;
1693;SDS011;844;47.058;15.472;2022-12-07T11:26:25;21.67;;;17.93;;
1693;SDS011;844;47.058;15.472;2022-12-07T11:29:21;19.33;;;16.53;;
1693;SDS011;844;47.058;15.472;2022-12-07T11:32:07;20.37;;;16.00;;
1693;SDS011;844;47.058;15.472;2022-12-07T11:34:48;20.80;;;18.60;;
1693;SDS011;844;47.058;15.472;2022-12-07T11:37:27;25.07;;;19.60;;
1693;SDS011;844;47.058;15.472;2022-12-07T11:40:11;18.43;;;15.63;;
1693;SDS011;844;47.058;15.472;2022-12-07T11:42:46;23.00;;;17.30;;
1693;SDS011;844;47.058;15.472;2022-12-07T11:45:22;22.90;;;17.83;;
1693;SDS011;844;47.058;15.472;2022-12-07T11:47:57;24.03;;;18.67;;
1693;SDS011;844;47.058;15.472;2022-12-07T11:50:31;23.03;;;19.10;;
1693;SDS011;844;47.058;15.472;2022-12-07T11:53:09;20.57;;;18.37;;
1693;SDS011;844;47.058;15.472;2022-12-07T11:55:43;24.23;;;18.97;;
1693;SDS011;844;47.058;15.472;2022-12-07T11:58:20;30.00;;;20.30;;
1693;SDS011;844;47.058;15.472;2022-12-07T12:01:06;28.67;;;19.37;;
1693;SDS011;844;47.058;15.472;2022-12-07T12:04:05;28.17;;;19.20;;
1693;SDS011;844;47.058;15.472;2022-12-07T12:06:41;23.13;;;20.13;;
1693;SDS011;844;47.058;15.472;2022-12-07T12:09:12;20.43;;;17.87;;
1693;SDS011;844;47.058;15.472;2022-12-07T12:12:11;23.00;;;19.83;;
1693;SDS011;844;47.058;15.472;2022-12-07T12:15:23;30.10;;;19.90;;
1693;SDS011;844;47.058;15.472;2022-12-07T12:18:13;22.83;;;18.77;;
1693;SDS011;844;47.058;15.472;2022-12-07T12:20:55;21.17;;;18.00;;
1693;SDS011;844;47.058;15.472;2022-12-07T12:23:27;22.43;;;18.80;;
1693;SDS011;844;47.058;15.472;2022-12-07T12:26:05;21.13;;;18.93;;
1693;SDS011;844;47.058;15.472;2022-12-07T12:28:42;24.43;;;18.93;;
1693;SDS011;844;47.058;15.472;2022-12-07T12:31:31;24.17;;;16.90;;
1693;SDS011;844;47.058;15.472;2022-12-07T12:34:04;20.73;;;18.00;;
1693;SDS011;844;47.058;15.472;2022-12-07T12:37:00;23.30;;;18.70;;
1693;SDS011;844;47.058;15.472;2022-12-07T12:39:29;28.20;;;19.40;;
1693;SDS011;844;47.058;15.472;2022-12-07T12:42:00;23.00;;;19.40;;
1693;SDS011;844;47.058;15.472;2022-12-07T12:44:40;25.43;;;21.00;;
1693;SDS011;844;47.058;15.472;2022-12-07T12:50:36;21.70;;;17.57;;
1693;SDS011;844;47.058;15.472;2022-12-07T12:56:19;22.43;;;17.13;;
1693;SDS011;844;47.058;15.472;2022-12-07T12:59:18;20.27;;;18.03;;
1693;SDS011;844;47.058;15.472;2022-12-07T13:01:54;18.33;;;15.73;;
1693;SDS011;844;47.058;15.472;2022-12-07T13:04:37;18.97;;;15.10;;
1693;SDS011;844;47.058;15.472;2022-12-07T13:07:10;17.17;;;14.57;;
1693;SDS011;844;47.058;15.472;2022-12-07T13:09:44;18.50;;;16.50;;
1693;SDS011;844;47.058;15.472;2022-12-07T13:12:15;19.93;;;16.73;;
1693;SDS011;844;47.058;15.472;2022-12-07T13:14:53;19.50;;;17.10;;
1693;SDS011;844;47.058;15.472;2022-12-07T13:23:26;21.30;;;17.63;;
1693;SDS011;844;47.058;15.472;2022-12-07T13:26:08;20.23;;;17.93;;
1693;SDS011;844;47.058;15.472;2022-12-07T13:28:45;21.27;;;16.77;;
1693;SDS011;844;47.058;15.472;2022-12-07T13:36:59;22.23;;;18.03;;
1693;SDS011;844;47.058;15.472;2022-12-07T13:39:32;19.63;;;17.63;;
1693;SDS011;844;47.058;15.472;2022-12-07T13:42:11;22.27;;;17.67;;
1693;SDS011;844;47.058;15.472;2022-12-07T13:44:48;16.90;;;15.20;;
1693;SDS011;844;47.058;15.472;2022-12-07T13:47:19;21.57;;;16.20;;
1693;SDS011;844;47.058;15.472;2022-12-07T13:49:52;17.57;;;15.67;;
1693;SDS011;844;47.058;15.472;2022-12-07T13:52:24;19.00;;;17.07;;
1693;SDS011;844;47.058;15.472;2022-12-07T13:54:56;18.00;;;15.70;;
1693;SDS011;844;47.058;15.472;2022-12-07T13:57:30;21.60;;;17.57;;
1693;SDS011;844;47.058;15.472;2022-12-07T14:00:04;23.33;;;15.70;;
1693;SDS011;844;47.058;15.472;2022-12-07T14:02:53;18.97;;;16.20;;
1693;SDS011;844;47.058;15.472;2022-12-07T14:05:24;20.33;;;17.10;;
1693;SDS011;844;47.058;15.472;2022-12-07T14:07:56;20.50;;;17.13;;
1693;SDS011;844;47.058;15.472;2022-12-07T14:10:28;21.13;;;18.23;;
1693;SDS011;844;47.058;15.472;2022-12-07T14:13:03;20.17;;;17.97;;
1693;SDS011;844;47.058;15.472;2022-12-07T14:15:50;23.33;;;16.07;;
1693;SDS011;844;47.058;15.472;2022-12-07T14:18:24;21.10;;;17.37;;
1693;SDS011;844;47.058;15.472;2022-12-07T14:21:04;20.30;;;16.20;;
1693;SDS011;844;47.058;15.472;2022-12-07T14:23:35;23.80;;;19.07;;
1693;SDS011;844;47.058;15.472;2022-12-07T14:26:10;19.97;;;16.07;;
1693;SDS011;844;47.058;15.472;2022-12-07T14:28:44;19.10;;;17.07;;
1693;SDS011;844;47.058;15.472;2022-12-07T14:31:14;23.53;;;17.37;;
1693;SDS011;844;47.058;15.472;2022-12-07T14:33:58;20.40;;;16.60;;
1693;SDS011;844;47.058;15.472;2022-12-07T14:36:28;21.60;;;18.27;;
1693;SDS011;844;47.058;15.472;2022-12-07T14:38:58;19.40;;;16.10;;
1693;SDS011;844;47.058;15.472;2022-12-07T14:41:28;19.30;;;16.77;;
1693;SDS011;844;47.058;15.472;2022-12-07T14:44:18;21.47;;;19.27;;
1693;SDS011;844;47.058;15.472;2022-12-07T14:46:51;24.03;;;19.23;;
1693;SDS011;844;47.058;15.472;2022-12-07T14:49:42;20.27;;;16.60;;
1693;SDS011;844;47.058;15.472;2022-12-07T14:52:13;17.10;;;15.30;;
1693;SDS011;844;47.058;15.472;2022-12-07T14:55:11;27.03;;;19.13;;
1693;SDS011;844;47.058;15.472;2022-12-07T14:57:44;21.43;;;17.77;;
1693;SDS011;844;47.058;15.472;2022-12-07T15:00:17;24.80;;;18.10;;
1693;SDS011;844;47.058;15.472;2022-12-07T15:02:49;20.50;;;18.50;;
1693;SDS011;844;47.058;15.472;2022-12-07T15:05:19;19.73;;;17.80;;
1693;SDS011;844;47.058;15.472;2022-12-07T15:07:49;18.40;;;16.47;;
1693;SDS011;844;47.058;15.472;2022-12-07T15:10:21;21.90;;;17.13;;
1693;SDS011;844;47.058;15.472;2022-12-07T15:12:56;19.93;;;17.77;;
1693;SDS011;844;47.058;15.472;2022-12-07T15:15:49;18.30;;;16.40;;
1693;SDS011;844;47.058;15.472;2022-12-07T15:18:21;20.07;;;17.20;;
1693;SDS011;844;47.058;15.472;2022-12-07T15:20:51;19.87;;;17.83;;
1693;SDS011;844;47.058;15.472;2022-12-07T15:23:21;17.93;;;15.03;;
1693;SDS011;844;47.058;15.472;2022-12-07T15:25:51;20.37;;;18.37;;
1693;SDS011;844;47.058;15.472;2022-12-07T15:28:20;22.43;;;17.53;;
1693;SDS011;844;47.058;15.472;2022-12-07T15:30:51;18.60;;;16.70;;
1693;SDS011;844;47.058;15.472;2022-12-07T15:33:21;23.50;;;18.80;;
1693;SDS011;844;47.058;15.472;2022-12-07T15:35:51;20.27;;;17.70;;
1693;SDS011;844;47.058;15.472;2022-12-07T15:38:21;18.77;;;16.83;;
1693;SDS011;844;47.058;15.472;2022-12-07T15:41:11;19.30;;;16.70;;
1693;SDS011;844;47.058;15.472;2022-12-07T15:43:41;18.67;;;15.83;;
1693;SDS011;844;47.058;15.472;2022-12-07T15:46:32;17.27;;;15.53;;
1693;SDS011;844;47.058;15.472;2022-12-07T15:49:04;18.73;;;15.40;;
1693;SDS011;844;47.058;15.472;2022-12-07T15:51:38;20.83;;;17.33;;
1693;SDS011;844;47.058;15.472;2022-12-07T15:54:08;20.40;;;17.33;;
1693;SDS011;844;47.058;15.472;2022-12-07T15:56:42;21.90;;;18.03;;
1693;SDS011;844;47.058;15.472;2022-12-07T15:59:12;19.93;;;16.07;;
1693;SDS011;844;47.058;15.472;2022-12-07T16:01:43;24.80;;;16.90;;
1693;SDS011;844;47.058;15.472;2022-12-07T16:04:12;22.37;;;18.30;;
1693;SDS011;844;47.058;15.472;2022-12-07T16:06:42;21.80;;;16.47;;
1693;SDS011;844;47.058;15.472;2022-12-07T16:09:11;18.87;;;15.60;;